Time;durP1;ratioP1;P1;durP2;ratioP2;P2;SDS_P1;SDS_P2;PMS_P1;PMS_P2;Temp;Humidity;BMP_temperature;BMP_pressure;BME280_temperature;BME280_humidity;BME280_pressure;Samples;Min_cycle;Max_cycle;Signal;HPM_P1;HPM_P2
2021/07/09 00:01:51;;;;;;;2.00;0.40;;;12.10;99.90;;;13.19;79.91;94776.31;5014347;28;20200;-70
2021/07/09 00:04:17;;;;;;;2.40;0.40;;;12.10;99.90;;;13.20;80.20;94772.56;5012139;28;20564;-69
2021/07/09 00:06:44;;;;;;;0.67;0.40;;;12.10;99.90;;;13.20;79.97;94769.09;5032096;28;20210;-70
2021/07/09 00:09:12;;;;;;;0.87;0.37;;;12.10;99.90;;;13.25;80.25;94769.13;5022002;28;20249;-71
2021/07/09 00:11:41;;;;;;;1.43;0.50;;;12.10;99.90;;;13.25;79.98;94771.81;5026177;28;20220;-71
2021/07/09 00:14:17;;;;;;;0.60;0.50;;;12.10;99.90;;;13.26;80.59;94776.84;5049147;28;20231;-71
2021/07/09 00:16:46;;;;;;;1.00;0.47;;;12.10;99.90;;;13.25;80.17;94764.63;5000332;28;20196;-70
2021/07/09 00:19:15;;;;;;;1.27;0.50;;;12.10;99.90;;;13.21;80.63;94768.06;5033198;28;20198;-71
2021/07/09 00:21:42;;;;;;;0.77;0.40;;;12.10;99.90;;;13.26;80.09;94765.44;5020768;28;20196;-70
2021/07/09 00:24:12;;;;;;;0.40;0.40;;;12.10;99.90;;;13.27;80.26;94767.81;5024984;28;20197;-70
2021/07/09 00:26:39;;;;;;;0.83;0.40;;;12.20;99.90;;;13.25;80.69;94767.28;5017370;28;20302;-71
2021/07/09 00:29:05;;;;;;;0.80;0.50;;;12.20;99.90;;;13.20;80.49;94766.44;5020247;28;20600;-70
2021/07/09 00:31:35;;;;;;;0.43;0.40;;;12.40;99.90;;;13.23;80.29;94769.38;5035531;28;20228;-70
2021/07/09 00:34:05;;;;;;;0.80;0.40;;;12.20;99.90;;;13.25;80.54;94761.16;5035925;28;20591;-71
2021/07/09 00:36:33;;;;;;;0.40;0.40;;;12.50;99.90;;;13.23;80.33;94758.75;5007566;28;20208;-71
2021/07/09 00:39:00;;;;;;;0.30;0.23;;;12.20;99.90;;;13.20;80.33;94758.44;5028315;28;20242;-70
2021/07/09 00:41:31;;;;;;;1.43;0.60;;;12.20;99.90;;;13.23;80.91;94763.25;5025728;28;20197;-72
2021/07/09 00:43:57;;;;;;;0.43;0.40;;;12.10;99.90;;;13.28;80.18;94764.09;5036225;28;20206;-71
2021/07/09 00:46:38;;;;;;;1.23;0.50;;;12.10;99.90;;;13.35;80.78;94770.00;5021802;28;20201;-71
2021/07/09 00:49:06;;;;;;;0.73;0.50;;;12.20;99.90;;;13.32;80.33;94767.84;5023897;28;20228;-71
2021/07/09 00:51:33;;;;;;;0.43;0.37;;;12.20;99.90;;;13.38;80.66;94771.31;5021994;28;20229;-71
2021/07/09 00:53:59;;;;;;;0.50;0.50;;;12.30;99.90;;;13.40;80.54;94771.84;5012399;28;20221;-71
2021/07/09 00:56:28;;;;;;;1.33;0.40;;;12.30;99.90;;;13.45;80.97;94774.56;5024865;28;21824;-71
2021/07/09 00:58:55;;;;;;;0.47;0.33;;;12.30;99.90;;;13.47;80.64;94772.41;5021922;28;20583;-72
2021/07/09 01:01:22;;;;;;;0.60;0.40;;;12.30;99.90;;;13.48;80.75;94766.03;5005917;28;20567;-70
2021/07/09 01:03:47;;;;;;;0.60;0.60;;;12.30;99.90;;;13.47;80.66;94766.28;5018586;28;20556;-71
2021/07/09 01:06:14;;;;;;;0.50;0.50;;;12.40;99.90;;;13.52;80.58;94774.31;5022368;28;20268;-71
2021/07/09 01:08:42;;;;;;;0.80;0.50;;;12.40;99.90;;;13.54;81.09;94774.84;5012806;28;20548;-71
2021/07/09 01:11:09;;;;;;;0.40;0.40;;;12.40;99.90;;;13.57;80.59;94772.47;5024732;28;20873;-72
2021/07/09 01:13:36;;;;;;;0.63;0.50;;;12.40;99.90;;;13.60;80.95;94776.44;5021816;28;20657;-71
2021/07/09 01:16:02;;;;;;;2.73;0.70;;;12.50;99.90;;;13.59;80.94;94767.69;5026153;28;20205;-72
2021/07/09 01:18:28;;;;;;;0.97;0.60;;;12.50;99.90;;;13.59;81.03;94766.88;5007836;28;20969;-72
2021/07/09 01:20:57;;;;;;;1.13;0.60;;;12.50;99.90;;;13.65;80.58;94771.97;5022163;28;20233;-72
2021/07/09 01:23:27;;;;;;;0.80;0.57;;;12.50;99.90;;;13.62;80.76;94779.69;5015074;28;20205;-71
2021/07/09 01:25:56;;;;;;;0.73;0.50;;;12.50;99.90;;;13.59;80.84;94785.53;5008409;28;20193;-72
2021/07/09 01:28:22;;;;;;;0.43;0.43;;;12.50;99.90;;;13.53;80.86;94768.72;5017899;28;20282;-71
2021/07/09 01:30:48;;;;;;;0.43;0.43;;;12.50;99.90;;;13.61;81.09;94778.06;5024424;28;20314;-72
2021/07/09 01:33:13;;;;;;;1.13;0.60;;;12.50;99.90;;;13.63;80.86;94774.06;5021483;28;20263;-72
2021/07/09 01:35:39;;;;;;;1.90;0.60;;;12.50;99.90;;;13.61;80.83;94768.22;5012395;28;20217;-71
2021/07/09 01:38:08;;;;;;;0.77;0.53;;;12.50;99.90;;;13.65;81.14;94771.97;5014455;28;20195;-72
2021/07/09 01:40:37;;;;;;;0.90;0.60;;;12.50;99.90;;;13.65;81.06;94773.81;5028435;28;20204;-72
2021/07/09 01:43:05;;;;;;;0.50;0.50;;;12.50;99.90;;;13.67;80.92;94779.69;5013734;28;20193;-72
2021/07/09 01:45:34;;;;;;;1.53;0.60;;;12.50;99.90;;;13.67;80.98;94780.47;5058318;28;20196;-72
2021/07/09 01:48:07;;;;;;;0.93;0.60;;;12.80;99.90;;;13.66;81.21;94776.25;5024823;28;20211;-72
2021/07/09 01:50:33;;;;;;;1.23;0.50;;;12.50;99.90;;;13.65;80.76;94781.81;5007642;28;20214;-72
2021/07/09 01:53:00;;;;;;;0.73;0.30;;;12.50;99.90;;;13.59;81.27;94774.88;5032684;28;20198;-72
2021/07/09 01:55:29;;;;;;;0.63;0.57;;;12.50;99.90;;;13.62;81.12;94775.16;5028376;28;20270;-72
2021/07/09 01:57:55;;;;;;;0.80;0.40;;;12.50;99.90;;;13.64;81.37;94773.03;5026731;28;20292;-72
2021/07/09 02:00:24;;;;;;;0.60;0.30;;;12.60;99.90;;;13.67;80.88;94783.16;5029220;28;20255;-72
2021/07/09 02:02:50;;;;;;;0.53;0.50;;;12.50;99.90;;;13.68;81.09;94781.28;5021797;28;20650;-71
2021/07/09 02:05:19;;;;;;;0.40;0.40;;;12.60;99.90;;;13.68;81.44;94783.94;5029472;28;20198;-72
2021/07/09 02:07:50;;;;;;;0.60;0.40;;;12.60;99.90;;;13.67;81.29;94782.34;5006436;28;20196;-72
2021/07/09 02:10:19;;;;;;;1.90;0.47;;;12.70;99.90;;;13.69;81.39;94782.91;5026451;28;20227;-72
2021/07/09 02:12:46;;;;;;;0.57;0.40;;;12.60;99.90;;;13.68;81.14;94775.97;5006221;28;20674;-72
2021/07/09 02:15:15;;;;;;;0.53;0.40;;;12.50;99.90;;;13.68;81.02;94783.94;5044284;28;20231;-71
2021/07/09 02:17:42;;;;;;;0.73;0.60;;;12.70;99.90;;;13.72;80.92;94787.69;5012358;28;20673;-71
2021/07/09 02:20:15;;;;;;;0.60;0.60;;;12.70;99.90;;;13.73;81.60;94783.97;4999289;28;20196;-72
2021/07/09 02:22:41;;;;;;;1.40;0.60;;;12.70;99.90;;;13.80;81.26;94779.19;5029756;28;20195;-72
2021/07/09 02:25:08;;;;;;;1.07;0.60;;;12.70;99.90;;;13.82;81.14;94780.53;5011269;28;20924;-71
2021/07/09 02:27:37;;;;;;;1.23;0.60;;;12.80;99.90;;;13.83;81.40;94781.34;5011199;28;20691;-71
2021/07/09 02:30:06;;;;;;;0.90;0.60;;;12.70;99.90;;;13.83;81.44;94790.13;5024329;28;20217;-72
2021/07/09 02:32:32;;;;;;;2.23;0.60;;;12.80;99.90;;;13.84;81.29;94788.25;5013360;28;20197;-71
2021/07/09 02:35:00;;;;;;;2.40;0.43;;;12.80;99.90;;;13.81;81.23;94786.13;5024118;28;20651;-71
2021/07/09 02:37:26;;;;;;;0.50;0.50;;;12.80;99.90;;;13.78;81.27;94779.47;5012472;28;20256;-73
2021/07/09 02:39:52;;;;;;;1.93;0.67;;;12.70;99.90;;;13.77;81.43;94787.69;5033463;28;20188;-72
2021/07/09 02:42:18;;;;;;;0.50;0.50;;;12.70;99.90;;;13.79;81.56;94785.59;5009457;28;20200;-72
2021/07/09 02:44:47;;;;;;;2.00;0.60;;;13.80;99.90;;;13.73;81.58;94781.31;5020417;28;20207;-69
2021/07/09 02:47:13;;;;;;;0.60;0.60;;;12.60;99.90;;;13.76;81.58;94786.94;5023334;28;20744;-72
2021/07/09 02:49:39;;;;;;;0.87;0.60;;;12.70;99.90;;;13.77;81.46;94793.03;5027003;28;20200;-72
2021/07/09 02:52:07;;;;;;;0.50;0.50;;;12.70;99.90;;;13.80;81.46;94797.84;4993708;28;20196;-71
2021/07/09 02:54:33;;;;;;;0.90;0.70;;;12.70;99.90;;;13.79;81.76;94781.06;5016142;28;20196;-71
2021/07/09 02:57:01;;;;;;;0.90;0.50;;;12.70;99.90;;;13.81;81.57;94786.13;5025390;28;20196;-71
2021/07/09 02:59:27;;;;;;;1.37;0.60;;;12.70;99.90;;;13.78;81.48;94789.31;4999280;28;20636;-72
2021/07/09 03:01:53;;;;;;;0.47;0.47;;;12.80;99.90;;;13.79;81.69;94789.06;4990536;28;20348;-71
2021/07/09 03:04:19;;;;;;;0.50;0.50;;;12.70;99.90;;;13.84;81.56;94785.59;5027944;28;20238;-71
2021/07/09 03:06:47;;;;;;;0.90;0.60;;;12.70;99.90;;;13.83;81.71;94790.13;5028984;28;20273;-71
2021/07/09 03:09:13;;;;;;;0.60;0.50;;;12.70;99.90;;;13.80;81.66;94789.84;5023546;28;20218;-72
2021/07/09 03:11:40;;;;;;;0.43;0.43;;;12.70;99.90;;;13.82;81.47;94798.38;5024430;28;20227;-71
2021/07/09 03:14:09;;;;;;;0.50;0.50;;;12.70;99.90;;;13.89;81.43;94801.63;5020794;28;20662;-71
2021/07/09 03:16:36;;;;;;;0.47;0.47;;;12.80;99.90;;;13.87;81.12;94793.88;5026873;28;20524;-71
2021/07/09 03:19:09;;;;;;;0.50;0.50;;;12.80;99.90;;;13.91;81.77;94791.47;5025550;28;20200;-72
2021/07/09 03:21:35;;;;;;;0.80;0.50;;;12.80;99.90;;;13.88;81.80;94784.00;5011133;28;20209;-71
2021/07/09 03:24:03;;;;;;;0.47;0.47;;;12.80;99.90;;;13.85;81.73;94788.00;5032090;28;20209;-71
2021/07/09 03:26:33;;;;;;;0.70;0.50;;;12.80;99.90;;;13.90;81.86;94791.75;5028892;28;20283;-72
2021/07/09 03:29:06;;;;;;;0.60;0.60;;;12.80;99.90;;;13.91;81.86;94807.47;4989349;28;20220;-72
2021/07/09 03:31:33;;;;;;;1.20;0.70;;;12.80;99.90;;;13.90;81.79;94797.09;5029439;28;20224;-71
2021/07/09 03:33:59;;;;;;;2.27;0.50;;;12.80;99.90;;;13.91;82.02;94802.13;5018884;28;20196;-71
2021/07/09 03:36:31;;;;;;;1.43;0.63;;;12.80;99.90;;;13.87;81.91;94796.53;5026541;28;20200;-71
2021/07/09 03:38:58;;;;;;;0.40;0.40;;;12.80;99.90;;;13.91;81.92;94794.16;5015253;28;20191;-72
2021/07/09 03:41:25;;;;;;;0.40;0.40;;;12.80;99.90;;;13.88;81.77;94802.66;5006658;28;20200;-71
2021/07/09 03:43:54;;;;;;;2.20;0.50;;;12.80;99.90;;;13.89;81.93;94804.28;5000527;28;20204;-70
2021/07/09 03:46:22;;;;;;;1.77;0.50;;;12.80;99.90;;;13.89;82.07;94801.63;5029072;28;20196;-71
2021/07/09 03:48:48;;;;;;;0.70;0.50;;;12.80;99.90;;;13.87;81.71;94793.88;5030717;28;20697;-71
2021/07/09 03:51:15;;;;;;;0.50;0.43;;;12.80;99.90;;;13.85;81.83;94789.88;5026924;28;20732;-71
2021/07/09 03:53:43;;;;;;;1.03;0.60;;;12.80;99.90;;;13.87;81.77;94806.38;5022097;28;20200;-71
2021/07/09 03:56:09;;;;;;;0.50;0.50;;;12.80;99.90;;;13.88;81.83;94803.47;5021491;28;20200;-72
2021/07/09 03:58:37;;;;;;;0.70;0.43;;;12.90;99.90;;;13.86;81.63;94802.13;5021866;28;20200;-71
2021/07/09 04:01:04;;;;;;;1.43;0.40;;;12.90;99.90;;;13.87;81.80;94811.72;5048168;28;20200;-71
2021/07/09 04:03:30;;;;;;;1.60;0.50;;;12.90;99.90;;;13.95;81.96;94810.41;5019573;28;20208;-71
2021/07/09 04:05:56;;;;;;;0.90;0.47;;;12.90;99.90;;;13.88;81.79;94800.00;5026738;28;20209;-71
2021/07/09 04:08:27;;;;;;;1.00;0.43;;;12.90;99.90;;;13.90;82.26;94808.53;5018130;28;20200;-71
2021/07/09 04:10:53;;;;;;;2.30;0.70;;;12.90;99.90;;;13.93;82.02;94808.03;5025835;28;20261;-71
2021/07/09 04:13:19;;;;;;;1.47;0.60;;;12.90;99.90;;;13.95;81.94;94815.75;4999974;28;20208;-71
2021/07/09 04:15:44;;;;;;;2.47;0.70;;;12.90;99.90;;;13.95;82.07;94811.22;5007513;28;20212;-70
2021/07/09 04:18:12;;;;;;;3.37;0.60;;;12.90;99.90;;;14.03;82.04;94829.38;5001048;28;20655;-71
2021/07/09 04:20:38;;;;;;;1.43;0.50;;;12.90;99.90;;;14.01;82.10;94820.00;5010397;28;20228;-72
2021/07/09 04:23:04;;;;;;;1.23;1.00;;;13.00;99.90;;;14.08;82.13;94826.72;5015330;28;20545;-71
2021/07/09 04:25:30;;;;;;;1.17;0.53;;;13.00;99.90;;;14.11;82.17;94817.38;5021359;28;20240;-71
2021/07/09 04:27:59;;;;;;;3.93;0.93;;;13.10;99.90;;;14.17;81.96;94827.78;5011678;28;20287;-71
2021/07/09 04:30:28;;;;;;;0.93;0.50;;;13.20;99.90;;;14.21;82.27;94833.41;5023241;28;20318;-71
2021/07/09 04:32:54;;;;;;;0.60;0.50;;;13.20;99.90;;;14.19;82.23;94825.69;5016553;28;20291;-70
2021/07/09 04:35:20;;;;;;;0.50;0.50;;;13.20;99.90;;;14.17;81.68;94824.34;5020638;28;20227;-72
2021/07/09 04:37:47;;;;;;;2.83;0.63;;;13.20;99.90;;;14.18;82.09;94824.06;5019973;28;20699;-70
2021/07/09 04:40:18;;;;;;;1.43;0.50;;;13.20;99.90;;;14.23;81.90;94824.09;5052296;28;20318;-70
2021/07/09 04:42:49;;;;;;;0.83;0.53;;;13.30;99.90;;;14.36;82.02;94838.81;5008598;28;20202;-71
2021/07/09 04:45:17;;;;;;;1.23;0.60;;;13.30;99.90;;;14.33;82.08;94818.81;5030631;28;20783;-70
2021/07/09 04:47:45;;;;;;;3.10;0.67;;;13.40;99.90;;;14.37;82.22;94819.84;5022062;28;20202;-71
2021/07/09 04:50:11;;;;;;;1.83;0.73;;;13.40;99.90;;;14.45;82.00;94834.53;5004322;28;20259;-71
2021/07/09 04:52:37;;;;;;;0.73;0.50;;;13.40;99.90;;;14.48;82.45;94825.19;5039854;28;20205;-70
2021/07/09 04:55:06;;;;;;;1.47;0.73;;;13.50;99.90;;;14.46;82.07;94830.00;5003055;28;20222;-70
2021/07/09 04:57:35;;;;;;;1.43;0.60;;;13.50;99.90;;;14.48;82.09;94827.88;5022950;28;20200;-69
2021/07/09 05:00:01;;;;;;;1.50;0.70;;;13.00;99.90;;;14.47;82.25;94827.06;5004588;28;20198;-71
2021/07/09 05:02:30;;;;;;;0.90;0.50;;;13.50;99.90;;;14.48;82.27;94831.34;5009579;28;20262;-72
2021/07/09 05:04:56;;;;;;;1.77;0.77;;;13.50;99.90;;;14.44;82.44;94829.50;5023979;28;20207;-72
2021/07/09 05:07:22;;;;;;;0.90;0.80;;;13.50;99.90;;;14.44;82.11;94824.94;5021804;28;20194;-71
2021/07/09 05:09:50;;;;;;;0.73;0.70;;;13.50;99.90;;;14.48;82.14;94831.34;5035482;28;20296;-72
2021/07/09 05:12:19;;;;;;;1.17;0.80;;;13.50;99.90;;;14.55;82.08;94839.88;5022859;28;20253;-72
2021/07/09 05:14:46;;;;;;;0.63;0.60;;;13.60;99.90;;;14.49;82.13;94832.94;5013033;28;20199;-72
2021/07/09 05:17:12;;;;;;;0.67;0.67;;;13.60;99.90;;;14.52;82.18;94847.63;5018572;28;20205;-70
2021/07/09 05:19:42;;;;;;;0.60;0.60;;;13.60;99.90;;;14.57;82.05;94847.63;5010169;28;20972;-71
2021/07/09 05:22:13;;;;;;;2.27;0.80;;;13.60;99.90;;;14.57;82.37;94845.75;5006612;28;20216;-71
2021/07/09 05:24:39;;;;;;;1.43;1.00;;;13.60;99.90;;;14.55;82.17;94844.41;5030187;28;20193;-72
2021/07/09 05:27:08;;;;;;;0.73;0.73;;;13.60;99.90;;;14.64;82.09;94850.84;5025265;28;20215;-71
2021/07/09 05:29:34;;;;;;;0.93;0.90;;;13.70;99.90;;;14.65;82.38;94841.75;5020812;28;20308;-71
2021/07/09 05:31:59;;;;;;;2.40;0.70;;;13.70;99.90;;;14.68;82.20;94851.88;5023939;28;20232;-71
2021/07/09 05:34:26;;;;;;;1.33;1.00;;;13.80;99.90;;;14.70;82.14;94857.78;5047674;28;20287;-72
2021/07/09 05:36:54;;;;;;;1.13;0.60;;;13.80;99.90;;;14.71;82.29;94857.50;5021958;28;20223;-72
2021/07/09 05:39:20;;;;;;;0.73;0.73;;;13.80;99.90;;;14.71;82.11;94848.69;5025566;28;20193;-72
2021/07/09 05:41:46;;;;;;;0.73;0.50;;;13.80;99.90;;;14.71;82.36;94856.69;5021222;28;20205;-71
2021/07/09 05:44:12;;;;;;;1.20;0.67;;;13.80;99.90;;;14.70;82.10;94852.44;5034549;28;20249;-72
2021/07/09 05:46:39;;;;;;;0.80;0.50;;;14.10;99.90;;;14.76;82.35;94865.53;5022705;28;20189;-71
2021/07/09 05:49:09;;;;;;;0.60;0.60;;;13.80;99.90;;;14.72;82.24;94856.44;5030636;28;20199;-71
2021/07/09 05:51:35;;;;;;;0.70;0.60;;;13.80;99.90;;;14.74;81.97;94866.88;5020996;28;20221;-71
2021/07/09 05:54:04;;;;;;;1.10;0.60;;;13.80;99.90;;;14.75;82.16;94861.25;5012982;28;20222;-72
2021/07/09 05:56:30;;;;;;;0.63;0.63;;;13.80;99.90;;;14.83;82.16;94873.25;5009468;28;20307;-72
2021/07/09 05:58:56;;;;;;;2.30;0.70;;;13.80;99.90;;;14.83;82.17;94868.72;5021404;28;20193;-72
2021/07/09 06:01:22;;;;;;;1.37;0.60;;;13.80;99.90;;;14.89;82.27;94861.50;5054365;28;20187;-72
2021/07/09 06:03:50;;;;;;;3.00;0.53;;;13.80;99.90;;;15.00;82.18;94873.00;4995958;28;20209;-71
2021/07/09 06:06:16;;;;;;;2.40;0.50;;;13.90;99.90;;;14.98;82.25;94859.91;5019564;28;20196;-71
2021/07/09 06:08:44;;;;;;;0.63;0.63;;;13.90;99.90;;;15.06;82.21;94875.41;5025183;28;20709;-71
2021/07/09 06:11:10;;;;;;;0.90;0.67;;;14.00;99.90;;;15.20;82.17;94865.78;5012524;28;20215;-71
2021/07/09 06:13:36;;;;;;;1.37;0.80;;;14.10;99.90;;;15.38;82.19;94856.38;5019258;28;20547;-72
2021/07/09 06:16:06;;;;;;;2.50;0.87;;;14.30;99.90;;;15.55;82.24;94872.13;5026242;28;20203;-71
2021/07/09 06:18:33;;;;;;;0.90;0.50;;;14.40;99.90;;;15.76;82.26;94879.84;5004176;28;20194;-73
2021/07/09 06:21:07;;;;;;;2.40;0.50;;;14.70;99.90;;;15.91;82.34;94861.06;5028953;28;20200;-72
2021/07/09 06:23:35;;;;;;;1.77;0.80;;;14.80;99.90;;;16.20;82.25;94874.59;5048800;28;20194;-74
2021/07/09 06:26:01;;;;;;;2.13;0.60;;;15.10;99.90;;;16.40;82.20;94869.13;5026139;28;20222;-74
2021/07/09 06:28:29;;;;;;;1.90;0.80;;;15.30;99.90;;;16.59;82.07;94869.28;5024216;28;20686;-73
2021/07/09 06:30:57;;;;;;;1.30;0.70;;;15.50;99.90;;;16.79;82.03;94863.81;5006073;28;20692;-72
2021/07/09 06:33:23;;;;;;;0.70;0.60;;;15.80;99.90;;;16.96;82.01;94857.25;5017640;28;20196;-74
2021/07/09 06:35:49;;;;;;;0.63;0.63;;;15.90;99.90;;;16.99;81.69;94862.84;5008209;28;20223;-72
2021/07/09 06:38:15;;;;;;;1.47;0.97;;;16.00;99.90;;;17.20;81.88;94861.59;4992445;28;20264;-73
2021/07/09 06:40:45;;;;;;;2.80;0.80;;;16.20;99.90;;;17.56;81.71;94880.84;5022961;28;20787;-73
2021/07/09 06:43:16;;;;;;;0.97;0.70;;;16.50;99.90;;;18.11;81.48;94908.16;5024183;28;20190;-75
2021/07/09 06:45:42;;;;;;;1.00;0.73;;;17.00;99.90;;;18.52;81.54;94877.06;5026346;28;20226;-74
2021/07/09 06:48:08;;;;;;;0.77;0.77;;;17.50;99.90;;;18.82;81.58;94867.75;5023532;28;20202;-75
2021/07/09 06:50:36;;;;;;;1.00;0.80;;;17.90;99.90;;;19.07;81.30;94888.06;5021365;28;20228;-75
2021/07/09 06:53:04;;;;;;;0.73;0.60;;;18.20;99.90;;;19.43;81.30;94902.56;5023213;28;20207;-75
2021/07/09 06:55:33;;;;;;;1.37;0.90;;;18.50;99.90;;;19.91;81.15;94903.06;5035153;28;20186;-74
2021/07/09 06:57:59;;;;;;;2.67;1.17;;;19.00;99.90;;;20.02;80.53;94882.91;5019690;28;20651;-71
2021/07/09 07:00:26;;;;;;;2.50;1.00;;;19.30;99.90;;;20.35;80.64;94908.66;5011002;28;20966;-72
2021/07/09 07:02:53;;;;;;;1.97;0.83;;;19.50;99.90;;;21.03;80.41;94883.44;5027315;28;20291;-73
2021/07/09 07:05:19;;;;;;;0.90;0.70;;;20.20;99.90;;;21.02;80.50;94873.75;5041521;28;20589;-74
2021/07/09 07:07:49;;;;;;;0.80;0.80;;;20.40;99.90;;;20.88;79.99;94876.50;5007152;28;20637;-72
2021/07/09 07:10:20;;;;;;;0.80;0.70;;;20.40;99.90;;;20.48;80.15;94877.44;5038496;28;20310;-73
2021/07/09 07:12:48;;;;;;;0.80;0.80;;;20.20;99.90;;;20.31;79.91;94893.41;5010102;28;20590;-72
2021/07/09 07:15:14;;;;;;;1.80;0.80;;;20.00;99.90;;;20.15;79.78;94892.88;5023529;28;20313;-72
2021/07/09 07:17:41;;;;;;;1.00;0.77;;;19.60;99.90;;;19.80;79.58;94889.00;5020286;28;20614;-72
2021/07/09 07:20:08;;;;;;;3.13;0.93;;;19.10;99.90;;;19.35;79.79;94890.53;5020599;28;20192;-72
2021/07/09 07:22:36;;;;;;;1.03;0.80;;;19.30;99.90;;;19.31;79.55;94899.47;5021693;28;20206;-73
2021/07/09 07:25:06;;;;;;;2.13;0.80;;;19.10;99.90;;;19.15;79.39;94900.81;5025398;28;20207;-72
2021/07/09 07:27:34;;;;;;;1.37;0.80;;;18.90;99.90;;;19.11;79.13;94889.06;5053034;28;20723;-70
2021/07/09 07:30:00;;;;;;;1.87;0.90;;;18.80;99.90;;;18.98;79.30;94896.00;5026716;28;21132;-71
2021/07/09 07:32:29;;;;;;;2.10;0.80;;;18.60;99.90;;;18.72;79.31;94898.25;5026481;28;20198;-71
2021/07/09 07:34:54;;;;;;;1.20;0.70;;;18.40;99.90;;;18.65;79.29;94897.00;5025027;28;20204;-71
2021/07/09 07:37:21;;;;;;;1.23;0.70;;;18.30;99.90;;;18.59;79.01;94904.34;4990539;28;20742;-71
2021/07/09 07:39:47;;;;;;;1.30;0.87;;;18.20;99.90;;;18.65;79.07;94897.81;5019543;28;21074;-71
2021/07/09 07:42:13;;;;;;;2.03;0.80;;;18.20;99.90;;;18.57;78.91;94898.44;5020260;28;20200;-70
2021/07/09 07:44:39;;;;;;;4.07;0.90;;;18.00;99.90;;;18.66;78.84;94912.03;5008991;28;20712;-71
2021/07/09 07:47:05;;;;;;;2.17;1.00;;;18.00;99.90;;;18.87;78.66;94911.44;5027174;28;20211;-73
2021/07/09 07:49:31;;;;;;;1.07;0.97;;;18.20;99.90;;;19.42;78.46;94923.25;5034541;28;20182;-71
2021/07/09 07:51:58;;;;;;;1.00;0.90;;;18.50;99.90;;;20.01;78.38;94932.47;5038499;28;20218;-73
2021/07/09 07:54:23;;;;;;;1.50;0.80;;;19.00;99.90;;;20.57;78.47;94920.59;5024638;28;20215;-72
2021/07/09 07:56:49;;;;;;;1.83;1.10;;;19.60;99.90;;;20.94;78.26;94896.88;5025995;28;20196;-72
2021/07/09 07:59:15;;;;;;;1.37;0.90;;;20.10;99.90;;;20.93;77.99;94902.56;5026530;28;20197;-73
2021/07/09 08:01:44;;;;;;;1.20;0.80;;;20.20;99.90;;;21.30;78.00;94909.53;5025347;28;20234;-74
2021/07/09 08:04:10;;;;;;;0.77;0.70;;;20.60;99.90;;;21.86;77.62;94908.91;5019357;28;20287;-74
2021/07/09 08:06:35;;;;;;;1.20;0.83;;;21.20;99.90;;;22.42;77.46;94932.56;5023251;28;20314;-73
2021/07/09 08:09:03;;;;;;;0.80;0.80;;;21.70;99.90;;;23.19;77.53;94913.78;5008586;28;20238;-72
2021/07/09 08:11:29;;;;;;;1.40;0.90;;;22.60;99.90;;;24.25;76.82;94985.34;5023670;28;20228;-73
2021/07/09 08:13:55;;;;;;;1.20;0.70;;;23.30;99.90;;;24.96;76.63;94904.94;5017596;28;20192;-74
2021/07/09 08:16:21;;;;;;;0.80;0.60;;;24.50;99.90;;;25.07;76.66;94922.44;5025905;28;20220;-76
2021/07/09 08:18:49;;;;;;;1.10;0.80;;;24.60;99.90;;;26.06;76.22;94928.72;5016723;28;20628;-73
2021/07/09 08:21:19;;;;;;;1.63;0.90;;;25.90;99.90;;;27.96;75.44;94993.06;5027714;28;20504;-74
2021/07/09 08:23:45;;;;;;;2.67;0.70;;;27.70;99.90;;;28.59;74.89;94919.50;5029928;28;20646;-73
2021/07/09 08:26:14;;;;;;;2.10;0.90;;;28.80;99.90;;;28.03;74.96;94846.03;5024744;28;20206;-73
2021/07/09 08:28:40;;;;;;;2.10;0.87;;;28.90;99.90;;;27.50;74.70;94866.41;4999621;28;20206;-73
2021/07/09 08:31:10;;;;;;;2.23;0.90;;;28.50;99.90;;;26.34;74.62;94852.78;5028183;28;20217;-74
2021/07/09 08:33:35;;;;;;;1.20;0.90;;;27.40;99.90;;;26.04;74.21;94876.66;5008471;28;20203;-74
2021/07/09 08:36:04;;;;;;;1.47;1.03;;;26.90;99.90;;;25.39;74.09;94869.31;5042638;28;20219;-75
2021/07/09 08:38:31;;;;;;;1.17;1.00;;;26.20;99.90;;;25.63;73.61;94910.16;5019564;28;20220;-73
2021/07/09 08:40:57;;;;;;;3.47;1.10;;;26.20;99.90;;;25.36;73.27;94887.06;5025061;28;20199;-74
2021/07/09 08:43:25;;;;;;;2.37;1.20;;;26.00;99.90;;;24.95;73.14;94879.72;5023743;28;20195;-75
2021/07/09 08:45:54;;;;;;;2.13;1.50;;;25.60;99.90;;;24.76;72.97;94873.16;5040577;28;20284;-75
2021/07/09 08:48:25;;;;;;;2.43;1.17;;;25.30;99.90;;;24.65;72.90;94904.47;5024390;28;20287;-75
2021/07/09 08:50:53;;;;;;;2.23;1.13;;;25.20;99.90;;;24.45;72.45;94890.56;5025137;28;20215;-76
2021/07/09 08:53:19;;;;;;;1.37;1.10;;;24.70;99.90;;;24.65;72.21;94921.53;5003208;28;20185;-75
2021/07/09 08:55:46;;;;;;;1.57;1.13;;;24.60;99.90;;;25.71;71.79;94936.47;5006997;28;20202;-74
2021/07/09 08:58:12;;;;;;;1.40;1.30;;;25.50;99.90;;;25.45;71.74;94890.50;5003401;28;20657;-73
2021/07/09 09:00:42;;;;;;;2.10;1.40;;;25.60;99.90;;;25.42;71.45;94902.00;5017557;28;20238;-72
2021/07/09 09:03:15;;;;;;;1.90;1.40;;;25.60;99.90;;;25.87;71.21;94914.88;5047133;28;20244;-72
2021/07/09 09:05:47;;;;;;;1.47;1.27;;;26.00;99.90;;;26.66;70.51;94987.88;5022701;28;20866;-72
2021/07/09 09:08:22;;;;;;;2.47;1.30;;;26.60;99.90;;;28.97;70.29;94963.34;5020337;28;20688;-74
2021/07/09 09:10:55;;;;;;;3.10;1.10;;;29.00;99.90;;;29.40;69.94;94919.47;5006580;28;20214;-74
2021/07/09 09:13:33;;;;;;;3.23;1.40;;;30.00;99.90;;;29.46;69.70;94982.81;5038121;28;20212;-74
2021/07/09 09:16:15;;;;;;;1.47;1.30;;;30.00;99.90;;;31.68;68.35;94972.34;5036349;28;20593;-74
2021/07/09 09:18:55;;;;;;;1.97;1.20;;;32.30;96.70;;;32.12;68.83;94911.38;5023656;28;20517;-74
2021/07/09 09:21:27;;;;;;;1.97;1.30;;;33.20;94.20;;;32.11;68.01;94939.97;5020373;28;20204;-73
2021/07/09 09:23:55;;;;;;;3.00;1.23;;;33.50;91.00;;;31.34;67.81;94861.03;5036538;28;20203;-72
2021/07/09 09:26:40;;;;;;;2.37;1.17;;;33.50;90.20;;;31.11;67.06;94962.53;5000676;28;20250;-73
2021/07/09 09:29:13;;;;;;;1.30;1.20;;;32.60;89.10;;;32.02;66.18;94989.63;5026243;28;20191;-73
2021/07/09 09:31:40;;;;;;;2.70;1.50;;;33.10;90.10;;;33.89;65.43;94985.78;5015980;28;20436;-72
2021/07/09 09:34:07;;;;;;;1.60;1.20;;;35.50;85.20;;;35.77;64.98;94908.75;5024854;28;20749;-75
2021/07/09 09:36:36;;;;;;;2.90;1.30;;;38.10;76.80;;;36.76;64.49;94941.38;5021623;28;20204;-73
2021/07/09 09:39:03;;;;;;;3.00;1.55;;;39.40;69.90;;;37.60;63.96;94906.66;5041475;28;20418;-71
2021/07/09 09:41:34;;;;;;;4.50;1.40;;;40.60;63.90;;;38.05;63.12;94881.59;5006609;28;20189;-72
2021/07/09 09:44:15;;;;;;;1.52;1.10;;;41.40;61.10;;;37.00;61.98;94938.44;5018521;28;20193;-70
2021/07/09 09:46:41;;;;;;;2.15;1.10;;;40.50;61.00;;;38.41;61.18;94949.97;4999639;28;20728;-71
2021/07/09 09:49:14;;;;;;;1.55;1.00;;;41.60;61.20;;;38.83;60.87;94817.47;5019698;28;20274;-74
2021/07/09 09:51:40;;;;;;;1.65;1.15;;;42.20;57.80;;;38.40;60.23;94815.38;5015972;28;20220;-71
2021/07/09 09:54:10;;;;;;;1.30;1.00;;;42.30;56.30;;;39.53;59.02;94959.72;5008762;28;20193;-71
2021/07/09 09:56:43;;;;;;;1.10;1.00;;;43.30;56.80;;;40.46;58.06;94890.72;5024719;28;20188;-72
2021/07/09 09:59:26;;;;;;;2.65;0.90;;;44.70;54.10;;;40.26;57.61;94911.47;5021806;28;20186;-72
2021/07/09 10:01:57;;;;;;;1.52;0.95;;;44.40;51.40;;;38.24;57.09;94795.84;5027135;28;20221;-74
2021/07/09 10:04:26;;;;;;;1.50;1.05;;;42.50;54.20;;;37.48;56.34;94888.59;5027995;28;20232;-72
2021/07/09 10:06:55;;;;;;;1.38;1.23;;;41.80;55.10;;;37.82;55.78;94877.50;5021456;28;20192;-72
2021/07/09 10:09:22;;;;;;;1.55;0.90;;;41.50;53.40;;;37.72;55.73;94805.66;5028209;28;20192;-74
2021/07/09 10:11:52;;;;;;;2.13;1.30;;;41.30;54.30;;;36.95;55.28;94836.53;5007867;28;20197;-73
2021/07/09 10:14:21;;;;;;;3.10;1.20;;;40.90;55.40;;;36.45;54.75;94898.94;5023876;28;20189;-73
2021/07/09 10:16:52;;;;;;;1.60;1.35;;;39.90;55.80;;;36.37;54.04;94818.09;5023467;28;20864;-71
2021/07/09 10:19:37;;;;;;;3.78;1.17;;;39.70;55.80;;;34.61;53.74;94796.72;5025168;28;20195;-72
2021/07/09 10:22:08;;;;;;;2.53;0.95;;;37.90;58.00;;;33.83;53.29;94824.19;5022418;28;20764;-71
2021/07/09 10:24:44;;;;;;;4.05;1.20;;;36.80;60.10;;;33.55;53.15;94890.88;5003332;28;20204;-71